Time;durP1;ratioP1;P1;durP2;ratioP2;P2;SDS_P1;SDS_P2;PMS_P1;PMS_P2;Temp;Humidity;BMP_temperature;BMP_pressure;BME280_temperature;BME280_humidity;BME280_pressure;Samples;Min_cycle;Max_cycle;Signal;HPM_P1;HPM_P2
2023/12/10 00:00:11;;;;;;;23.33;10.32;;;;;;;0.98;81.03;99952.41;3152812;28;20058;-73
2023/12/10 00:01:42;;;;;;;25.10;11.13;;;;;;;0.97;81.13;99945.53;3156389;28;20047;-74
2023/12/10 00:03:13;;;;;;;25.00;11.13;;;;;;;1.00;81.00;99949.81;3152819;28;20378;-74
2023/12/10 00:04:46;;;;;;;21.83;10.57;;;;;;;1.01;80.97;99952.38;3152754;28;20058;-74
2023/12/10 00:06:18;;;;;;;23.63;10.70;;;;;;;1.03;80.97;99953.22;3161854;28;20043;-73
2023/12/10 00:07:49;;;;;;;19.98;10.27;;;;;;;1.01;80.90;99960.06;3152866;28;20208;-75
2023/12/10 00:09:20;;;;;;;23.67;11.25;;;;;;;1.02;80.90;99958.34;3158267;28;20059;-73
2023/12/10 00:10:52;;;;;;;24.70;10.88;;;;;;;1.01;80.82;99954.94;3156579;28;20062;-71
2023/12/10 00:12:23;;;;;;;24.40;11.20;;;;;;;1.02;80.72;99953.22;3160536;28;20055;-74
2023/12/10 00:13:55;;;;;;;24.55;10.75;;;;;;;1.02;80.77;99955.78;3154690;28;20131;-73
2023/12/10 00:15:26;;;;;;;23.60;10.52;;;;;;;1.01;80.72;99962.63;3152595;28;20063;-70
2023/12/10 00:16:58;;;;;;;27.88;11.45;;;;;;;1.00;80.47;99960.91;3152636;28;20052;-71
2023/12/10 00:18:29;;;;;;;23.17;10.38;;;;;;;1.00;80.75;99966.03;3158869;28;20155;-71
2023/12/10 00:20:01;;;;;;;24.80;11.65;;;;;;;1.00;80.78;99967.75;3154948;28;20083;-71
2023/12/10 00:21:33;;;;;;;24.48;11.30;;;;;;;1.01;80.82;99970.34;3162282;28;20292;-72
2023/12/10 00:23:07;;;;;;;22.10;11.02;;;;;;;0.99;80.66;99977.16;3163359;28;20500;-71
2023/12/10 00:24:42;;;;;;;25.27;10.73;;;;;;;0.98;80.52;99972.91;3152269;28;20052;-72
2023/12/10 00:26:13;;;;;;;21.05;10.27;;;;;;;0.97;80.60;99980.59;3153527;28;20367;-70
2023/12/10 00:27:45;;;;;;;24.15;10.98;;;;;;;0.97;80.65;99973.75;3165223;28;20062;-71
2023/12/10 00:29:16;;;;;;;26.08;11.93;;;;;;;0.96;80.85;99974.63;3152357;28;20166;-70
2023/12/10 00:31:07;;;;;;;25.55;11.57;;;;;;;0.97;80.79;99978.88;3153010;28;20823;-69
2023/12/10 00:32:38;;;;;;;26.50;11.63;;;;;;;0.95;81.04;99985.75;3158134;28;20593;-69
2023/12/10 00:34:10;;;;;;;26.35;11.30;;;;;;;0.97;80.84;99978.03;3164939;28;20055;-70
2023/12/10 00:35:41;;;;;;;26.17;10.90;;;;;;;0.97;80.71;99978.88;3155497;28;20051;-71
2023/12/10 00:37:14;;;;;;;26.13;11.48;;;;;;;0.99;81.02;99973.75;3153574;28;20258;-70
2023/12/10 00:38:45;;;;;;;;;;;;;;;0.86;80.97;99967.81;3152884;28;20509;-70
2023/12/10 00:40:17;;;;;;;25.25;10.27;;;;;;;0.77;81.20;99947.31;3152102;28;19931;-70
2023/12/10 00:41:48;;;;;;;25.58;12.02;;;;;;;0.91;80.97;99966.94;3161474;28;20062;-70
2023/12/10 00:43:20;;;;;;;23.42;10.40;;;;;;;0.94;80.95;99960.94;3165116;28;20358;-70
2023/12/10 00:44:51;;;;;;;24.40;10.93;;;;;;;0.94;80.92;99967.78;3157186;28;20066;-69
2023/12/10 00:46:23;;;;;;;22.27;10.15;;;;;;;0.94;80.79;99958.38;3152535;28;20044;-70
2023/12/10 00:47:53;;;;;;;24.40;11.60;;;;;;;0.84;80.64;99949.88;3157863;28;20122;-69
2023/12/10 00:49:25;;;;;;;23.70;11.25;;;;;;;0.93;80.75;99966.94;3164194;28;20586;-70
2023/12/10 00:50:56;;;;;;;23.83;11.15;;;;;;;0.93;80.69;99963.53;3159109;28;20047;-70
2023/12/10 00:52:29;;;;;;;25.50;11.60;;;;;;;0.93;80.62;99964.38;3157040;28;20097;-71
2023/12/10 00:54:00;;;;;;;;;;;;;;;0.80;80.80;99957.56;3157294;28;20108;-71
2023/12/10 00:55:32;;;;;;;23.13;10.55;;;;;;;0.83;80.93;99949.88;3165107;28;19923;-71
2023/12/10 00:57:03;;;;;;;23.85;10.13;;;;;;;0.85;80.65;99948.16;3163617;28;20052;-71
2023/12/10 00:58:35;;;;;;;24.98;10.95;;;;;;;0.87;80.89;99952.41;3152840;28;20100;-70
2023/12/10 01:00:07;;;;;;;24.10;11.00;;;;;;;0.85;80.71;99948.16;3164850;28;20051;-70
2023/12/10 01:01:39;;;;;;;26.58;11.77;;;;;;;0.87;80.80;99951.56;3164967;28;20107;-70
2023/12/10 01:03:10;;;;;;;26.35;11.25;;;;;;;0.86;80.67;99948.16;3159300;28;20059;-70
2023/12/10 01:04:42;;;;;;;26.85;10.70;;;;;;;0.86;80.78;99943.03;3154654;28;20588;-70
2023/12/10 01:06:12;;;;;;;24.70;9.45;;;;;;;0.86;80.85;99944.75;3158659;28;20047;-68
2023/12/10 01:07:46;;;;;;;20.85;9.00;;;;;;;0.85;80.81;99949.00;3155711;28;20059;-68
2023/12/10 01:09:16;;;;;;;;;;;;;;;0.68;80.81;99943.94;3161542;28;20047;-68
2023/12/10 01:10:48;;;;;;;22.75;9.68;;;;;;;0.71;80.92;99942.22;3159735;28;19981;-67
2023/12/10 01:12:20;;;;;;;20.83;9.20;;;;;;;0.73;80.91;99938.78;3152217;28;20098;-67
2023/12/10 01:13:51;;;;;;;21.85;9.63;;;;;;;0.74;80.96;99939.63;3162158;28;20262;-67
2023/12/10 01:15:30;;;;;;;22.58;9.93;;;;;;;0.63;80.93;99919.19;3164744;28;20497;-67
2023/12/10 01:17:01;;;;;;;21.23;9.90;;;;;;;0.67;80.76;99931.13;3158820;28;20117;-67
2023/12/10 01:18:34;;;;;;;23.83;11.13;;;;;;;0.72;80.97;99939.66;3156550;28;20673;-67
2023/12/10 01:20:05;;;;;;;;;;;;;;;0.59;80.99;99937.97;3161383;28;20062;-67
2023/12/10 01:21:38;;;;;;;22.17;10.18;;;;;;;0.62;81.18;99936.28;3155463;28;20010;-67
2023/12/10 01:23:10;;;;;;;21.02;9.77;;;;;;;0.66;81.18;99934.56;3164295;28;20543;-68
2023/12/10 01:24:42;;;;;;;22.90;9.90;;;;;;;0.67;81.18;99931.97;3164317;28;20054;-66
2023/12/10 01:26:14;;;;;;;23.00;10.05;;;;;;;0.68;80.86;99933.69;3163308;28;20066;-66
2023/12/10 01:27:46;;;;;;;21.95;10.38;;;;;;;0.70;81.11;99946.50;3151956;28;20083;-66
2023/12/10 01:29:17;;;;;;;21.92;10.00;;;;;;;0.70;81.06;99940.53;3152239;28;20293;-67
2023/12/10 01:30:49;;;;;;;19.83;9.65;;;;;;;0.70;81.17;99943.94;3151782;28;20589;-66
2023/12/10 01:32:20;;;;;;;21.40;10.48;;;;;;;0.71;81.17;99942.22;3155133;28;20044;-67
2023/12/10 01:33:52;;;;;;;23.23;9.77;;;;;;;0.71;81.20;99940.53;3155652;28;20059;-68
2023/12/10 01:35:23;;;;;;;21.15;9.05;;;;;;;0.72;81.13;99937.09;3155074;28;20517;-69
2023/12/10 01:36:55;;;;;;;23.67;10.43;;;;;;;0.66;80.97;99932.84;3151976;28;20058;-69
2023/12/10 01:38:28;;;;;;;24.33;9.70;;;;;;;0.64;81.14;99931.13;3151691;28;20048;-68
2023/12/10 01:39:59;;;;;;;21.15;9.27;;;;;;;0.60;81.05;99930.28;3151841;28;20535;-68
2023/12/10 01:41:31;;;;;;;19.58;9.07;;;;;;;0.60;81.08;99934.56;3151493;28;20048;-68
2023/12/10 01:43:05;;;;;;;27.52;10.23;;;;;;;0.60;81.08;99929.44;3151890;28;20614;-68
2023/12/10 01:44:37;;;;;;;22.63;9.07;;;;;;;0.59;81.32;99930.28;3156716;28;20130;-68
2023/12/10 01:46:08;;;;;;;22.98;9.82;;;;;;;0.59;81.25;99931.16;3159799;28;20052;-68
2023/12/10 01:47:43;;;;;;;23.58;10.65;;;;;;;0.60;81.18;99922.59;3155145;28;20047;-70
2023/12/10 01:49:16;;;;;;;23.13;9.55;;;;;;;0.56;81.30;99918.34;3156934;28;20113;-68
2023/12/10 01:50:48;;;;;;;;;;;;;;;0.48;81.34;99911.53;3158642;28;20047;-67
2023/12/10 01:52:22;;;;;;;21.25;9.15;;;;;;;0.46;81.38;99896.16;3161219;28;20320;-68
2023/12/10 01:53:54;;;;;;;25.83;9.43;;;;;;;0.55;81.46;99905.53;3151678;28;20515;-68
2023/12/10 01:55:26;;;;;;;22.15;8.77;;;;;;;0.45;81.38;99886.78;3152319;28;20079;-69
2023/12/10 01:56:57;;;;;;;22.40;10.40;;;;;;;0.57;81.30;99899.56;3164453;28;20059;-67
2023/12/10 01:58:29;;;;;;;22.40;9.80;;;;;;;0.57;81.36;99904.69;3151785;28;20531;-69
2023/12/10 02:00:04;;;;;;;22.73;10.57;;;;;;;0.59;81.25;99915.78;3153163;28;20052;-68
2023/12/10 02:01:36;;;;;;;22.35;9.68;;;;;;;0.60;81.36;99899.53;3156444;28;20765;-67
2023/12/10 02:03:08;;;;;;;26.30;9.98;;;;;;;0.60;81.42;99896.97;3154361;28;20079;-67
2023/12/10 02:04:41;;;;;;;20.52;9.40;;;;;;;0.60;81.39;99898.69;3151728;28;20056;-68
2023/12/10 02:06:12;;;;;;;19.53;8.77;;;;;;;0.60;81.29;99903.81;3160674;28;20069;-68
2023/12/10 02:07:44;;;;;;;20.58;9.93;;;;;;;0.58;81.45;99896.13;3164015;28;20394;-69
2023/12/10 02:09:18;;;;;;;20.25;10.13;;;;;;;0.62;81.41;99891.84;3159429;28;20263;-69
2023/12/10 02:10:50;;;;;;;22.83;10.35;;;;;;;0.61;81.34;99895.25;3151164;28;20418;-69
2023/12/10 02:12:22;;;;;;;22.92;11.07;;;;;;;0.58;81.38;99892.72;3151577;28;20051;-68
2023/12/10 02:13:54;;;;;;;28.00;11.32;;;;;;;0.55;81.41;99887.59;3155980;28;20059;-69
2023/12/10 02:15:27;;;;;;;25.15;11.45;;;;;;;0.57;81.45;99889.31;3151569;28;20673;-69
2023/12/10 02:16:59;;;;;;;22.85;11.82;;;;;;;0.56;81.47;99885.03;3151722;28;20056;-66
2023/12/10 02:18:29;;;;;;;23.23;10.98;;;;;;;0.56;81.44;99886.72;3154997;28;20158;-65
2023/12/10 02:20:02;;;;;;;29.02;11.45;;;;;;;0.56;81.42;99890.16;3153601;28;20052;-65
2023/12/10 02:21:51;;;;;;;29.52;11.02;;;;;;;0.55;81.30;99890.16;3155290;28;20056;-66
2023/12/10 02:23:31;;;;;;;26.38;11.98;;;;;;;-0.28;81.46;99752.94;3162184;28;20055;-65
2023/12/10 02:25:08;;;;;;;25.83;10.18;;;;;;;0.54;81.42;99883.34;3161673;28;20096;-66
2023/12/10 02:26:41;;;;;;;22.67;10.90;;;;;;;0.53;81.52;99886.75;3157485;28;20113;-66
2023/12/10 02:28:16;;;;;;;22.27;10.98;;;;;;;0.38;81.45;99870.53;3156630;28;20570;-65
2023/12/10 02:29:48;;;;;;;24.38;11.15;;;;;;;0.48;81.54;99891.03;3160773;28;20494;-65
2023/12/10 02:31:20;;;;;;;22.58;10.32;;;;;;;0.45;81.61;99892.75;3165910;28;20063;-65
2023/12/10 02:32:52;;;;;;;21.35;9.85;;;;;;;0.44;81.47;99888.50;3157248;28;20121;-66
2023/12/10 02:34:23;;;;;;;27.30;10.13;;;;;;;0.44;81.61;99879.94;3156047;28;20071;-66
2023/12/10 02:35:55;;;;;;;21.17;9.68;;;;;;;0.44;81.52;99888.50;3157305;28;20062;-66
2023/12/10 02:37:26;;;;;;;22.60;10.32;;;;;;;0.44;81.51;99887.63;3169295;28;20051;-66
2023/12/10 02:38:57;;;;;;;22.73;9.95;;;;;;;0.44;81.59;99885.06;3156686;28;20143;-66
2023/12/10 02:40:28;;;;;;;24.40;10.02;;;;;;;0.43;81.55;99891.03;3155833;28;20056;-66
2023/12/10 02:42:02;;;;;;;25.08;10.40;;;;;;;0.41;81.77;99891.06;3168054;28;20074;-66
2023/12/10 02:43:32;;;;;;;;;;;;;;;0.27;81.92;99882.56;3158766;28;20052;-66
2023/12/10 02:45:04;;;;;;;23.45;9.73;;;;;;;0.26;81.93;99880.81;3157125;28;19971;-65
2023/12/10 02:46:35;;;;;;;23.63;9.77;;;;;;;0.35;82.02;99885.06;3159483;28;20052;-67
2023/12/10 02:48:07;;;;;;;21.13;9.82;;;;;;;0.36;81.91;99890.22;3160471;28;20148;-66
2023/12/10 02:49:38;;;;;;;27.27;10.60;;;;;;;0.40;81.89;99896.19;3162324;28;20055;-67
2023/12/10 02:51:10;;;;;;;27.40;11.30;;;;;;;0.39;81.85;99894.47;3164751;28;20062;-65
2023/12/10 02:52:41;;;;;;;24.13;10.27;;;;;;;0.43;81.81;99896.16;3158568;28;20044;-65
2023/12/10 02:54:13;;;;;;;23.33;11.02;;;;;;;0.40;81.68;99904.72;3156374;28;20442;-66
2023/12/10 02:55:45;;;;;;;21.42;9.27;;;;;;;0.45;81.71;99897.03;3156395;28;20102;-66
2023/12/10 02:57:17;;;;;;;23.77;11.20;;;;;;;0.45;81.60;99905.56;3156317;28;20051;-66
2023/12/10 02:58:49;;;;;;;26.15;11.25;;;;;;;0.42;81.63;99899.59;3156127;28;20055;-66
2023/12/10 03:00:19;;;;;;;22.20;10.07;;;;;;;0.49;81.62;99906.41;3156363;28;20052;-65
2023/12/10 03:01:51;;;;;;;24.35;10.10;;;;;;;0.51;81.57;99902.13;3160955;28;20518;-66
2023/12/10 03:03:23;;;;;;;23.58;10.73;;;;;;;0.52;81.52;99908.94;3156448;28;20048;-67
2023/12/10 03:04:54;;;;;;;21.02;10.48;;;;;;;0.54;81.54;99907.25;3156162;28;20595;-67
2023/12/10 03:06:26;;;;;;;24.90;10.45;;;;;;;0.53;81.57;99900.41;3162233;28;20127;-68
2023/12/10 03:07:57;;;;;;;23.52;9.50;;;;;;;0.54;81.54;99909.81;3157628;28;20072;-68
2023/12/10 03:09:28;;;;;;;21.33;10.60;;;;;;;0.56;81.61;99918.34;3167061;28;20043;-67
2023/12/10 03:11:00;;;;;;;22.42;10.27;;;;;;;0.58;81.45;99914.06;3158868;28;20083;-67
2023/12/10 03:12:32;;;;;;;28.00;10.38;;;;;;;0.59;81.62;99922.59;3165612;28;20044;-67
2023/12/10 03:14:04;;;;;;;23.98;10.20;;;;;;;0.59;81.59;99931.16;3156488;28;20387;-67
2023/12/10 03:15:35;;;;;;;27.13;10.50;;;;;;;0.59;81.65;99935.41;3157755;28;20143;-68
2023/12/10 03:17:07;;;;;;;22.40;10.18;;;;;;;0.59;81.51;99935.41;3162537;28;20600;-67
2023/12/10 03:18:39;;;;;;;23.63;10.48;;;;;;;0.63;81.48;99944.81;3163671;28;20043;-66
2023/12/10 03:20:12;;;;;;;22.65;10.02;;;;;;;0.57;81.46;99945.69;3167638;28;20059;-67
2023/12/10 03:21:44;;;;;;;26.15;10.55;;;;;;;0.63;81.63;99947.38;3162363;28;20040;-66
2023/12/10 03:23:16;;;;;;;23.48;10.70;;;;;;;0.66;81.62;99960.19;3167996;28;20044;-68
2023/12/10 03:24:48;;;;;;;23.67;10.88;;;;;;;0.65;81.59;99949.09;3158251;28;20085;-67
2023/12/10 03:26:19;;;;;;;25.65;11.65;;;;;;;0.63;81.49;99949.94;3160410;28;20109;-67
2023/12/10 03:27:52;;;;;;;24.80;10.73;;;;;;;0.72;81.45;99961.88;3169808;28;20126;-66
2023/12/10 03:29:23;;;;;;;26.08;10.95;;;;;;;0.70;81.57;99953.34;3158680;28;20093;-68
2023/12/10 03:30:55;;;;;;;25.55;11.10;;;;;;;0.71;81.49;99950.78;3163435;28;20047;-68
2023/12/10 03:32:26;;;;;;;25.02;11.27;;;;;;;0.75;81.39;99949.91;3170597;28;20047;-68
2023/12/10 03:33:58;;;;;;;23.13;10.55;;;;;;;0.77;81.58;99950.75;3159226;28;20113;-69
2023/12/10 03:35:28;;;;;;;24.88;11.55;;;;;;;0.79;81.53;99948.19;3169478;28;20055;-67
2023/12/10 03:37:00;;;;;;;24.98;11.63;;;;;;;0.81;81.46;99949.88;3160823;28;20181;-68
2023/12/10 03:38:31;;;;;;;38.20;17.05;;;;;;;0.84;81.53;99952.44;3158410;28;20137;-68
2023/12/10 03:40:03;;;;;;;32.78;14.60;;;;;;;0.85;81.50;99945.59;3158156;28;20067;-66
2023/12/10 03:41:34;;;;;;;23.75;11.25;;;;;;;0.88;81.58;99940.44;3165925;28;20036;-68
2023/12/10 03:43:07;;;;;;;32.22;13.02;;;;;;;0.89;81.51;99943.03;3171007;28;20095;-69
2023/12/10 03:44:40;;;;;;;26.98;12.65;;;;;;;0.51;81.54;99873.09;3164270;28;20044;-70
2023/12/10 03:46:12;;;;;;;27.67;11.45;;;;;;;0.92;81.53;99937.03;3162894;28;20157;-68
2023/12/10 03:47:46;;;;;;;23.08;11.50;;;;;;;0.89;81.29;99925.06;3158397;28;20044;-69
2023/12/10 03:49:18;;;;;;;28.65;12.60;;;;;;;0.95;81.33;99926.75;3159768;28;20048;-68
2023/12/10 03:50:51;;;;;;;24.40;11.18;;;;;;;0.98;81.35;99924.19;3162331;28;20143;-68
2023/12/10 03:52:22;;;;;;;26.88;12.75;;;;;;;0.99;81.36;99915.63;3163526;28;20788;-68
2023/12/10 03:53:53;;;;;;;31.15;12.35;;;;;;;1.01;81.11;99916.47;3159636;28;20056;-68
2023/12/10 03:55:25;;;;;;;31.33;12.68;;;;;;;1.02;81.19;99901.94;3170683;28;20490;-68
2023/12/10 03:56:56;;;;;;;27.35;11.93;;;;;;;1.03;81.09;99912.19;3171147;28;20052;-69
2023/12/10 03:58:29;;;;;;;28.30;12.32;;;;;;;1.05;81.02;99907.91;3162931;28;20184;-69
2023/12/10 04:00:00;;;;;;;28.10;12.90;;;;;;;1.03;81.02;99899.34;3170732;28;20048;-69
2023/12/10 04:01:32;;;;;;;32.55;12.93;;;;;;;1.03;80.95;99899.34;3170419;28;20065;-69
2023/12/10 04:03:04;;;;;;;31.17;13.18;;;;;;;1.04;81.02;99903.66;3160239;28;20432;-68
2023/12/10 04:04:36;;;;;;;30.70;13.27;;;;;;;1.03;81.07;99904.47;3167695;28;20412;-68
2023/12/10 04:06:08;;;;;;;27.70;12.45;;;;;;;1.03;81.00;99913.91;3164831;28;20532;-68
2023/12/10 04:07:39;;;;;;;30.42;13.13;;;;;;;1.01;81.01;99905.38;3162191;28;20121;-68
2023/12/10 04:09:11;;;;;;;25.65;12.25;;;;;;;1.01;81.00;99908.78;3162197;28;20047;-68
2023/12/10 04:10:42;;;;;;;26.88;11.38;;;;;;;1.02;81.06;99907.06;3163273;28;20071;-65
2023/12/10 04:12:14;;;;;;;25.73;11.52;;;;;;;0.99;80.91;99905.38;3157619;28;20095;-66
2023/12/10 04:13:47;;;;;;;27.38;11.13;;;;;;;0.97;80.95;99895.97;3161473;28;20433;-67
2023/12/10 04:15:18;;;;;;;35.15;11.25;;;;;;;0.93;80.94;99902.00;3162152;28;20463;-67
2023/12/10 04:16:50;;;;;;;26.77;11.02;;;;;;;0.91;80.97;99894.28;3157635;28;20052;-67
2023/12/10 04:18:21;;;;;;;29.50;12.20;;;;;;;0.91;81.23;99899.41;3157850;28;20059;-65
2023/12/10 04:19:52;;;;;;;32.92;14.27;;;;;;;0.90;81.13;99900.28;3158503;28;20436;-66
2023/12/10 04:21:23;;;;;;;28.02;11.45;;;;;;;0.91;81.12;99900.25;3161830;28;20445;-66
2023/12/10 04:22:55;;;;;;;31.23;12.55;;;;;;;0.92;81.15;99908.84;3169503;28;20547;-64
2023/12/10 04:24:26;;;;;;;30.85;12.40;;;;;;;0.92;81.20;99911.41;3157802;28;20060;-65
2023/12/10 04:25:58;;;;;;;27.10;12.65;;;;;;;0.86;80.93;99916.56;3157589;28;20481;-66
2023/12/10 04:27:30;;;;;;;33.28;11.98;;;;;;;0.83;81.18;99919.13;3169087;28;20044;-66
2023/12/10 04:29:02;;;;;;;30.80;12.55;;;;;;;0.84;81.27;99923.38;3160721;28;20113;-65
2023/12/10 04:30:34;;;;;;;36.47;16.45;;;;;;;0.84;81.33;99923.38;3159709;28;20084;-65
2023/12/10 04:32:05;;;;;;;27.35;11.57;;;;;;;0.85;81.35;99925.09;3158571;28;20450;-65
2023/12/10 04:33:37;;;;;;;32.00;14.10;;;;;;;0.87;81.44;99933.63;3170123;28;20116;-65
2023/12/10 04:35:10;;;;;;;27.17;13.23;;;;;;;0.88;81.20;99928.47;3170396;28;20043;-65
2023/12/10 04:36:42;;;;;;;28.25;11.30;;;;;;;0.87;81.29;99925.94;3162853;28;20111;-66
2023/12/10 04:38:13;;;;;;;24.40;11.43;;;;;;;0.83;81.27;99924.25;3157817;28;20485;-65
2023/12/10 04:39:45;;;;;;;26.45;11.27;;;;;;;0.77;81.19;99930.25;3157884;28;20201;-66
2023/12/10 04:41:15;;;;;;;27.90;11.63;;;;;;;0.67;81.38;99926.84;3157043;28;20460;-66
2023/12/10 04:42:47;;;;;;;28.38;11.80;;;;;;;0.61;81.57;99919.19;3157494;28;20048;-66
2023/12/10 04:44:20;;;;;;;36.42;15.07;;;;;;;0.58;81.57;99923.47;3161569;28;20056;-66
2023/12/10 04:45:51;;;;;;;34.03;13.65;;;;;;;0.55;81.83;99929.44;3160369;28;20081;-66
2023/12/10 04:47:22;;;;;;;41.33;15.32;;;;;;;0.53;81.96;99933.72;3168201;28;20502;-66
2023/12/10 04:48:54;;;;;;;46.15;16.40;;;;;;;0.45;82.00;99923.50;3157634;28;20048;-65
2023/12/10 04:50:25;;;;;;;41.38;13.68;;;;;;;0.43;82.07;99922.63;3160658;28;20052;-65
2023/12/10 04:51:57;;;;;;;41.35;14.38;;;;;;;0.41;82.19;99928.63;3158213;28;20254;-66
2023/12/10 04:53:28;;;;;;;44.08;14.23;;;;;;;0.39;82.36;99930.34;3161088;28;20052;-65
2023/12/10 04:54:59;;;;;;;38.63;13.95;;;;;;;0.38;82.44;99936.31;3168368;28;20055;-65
2023/12/10 04:56:30;;;;;;;45.25;14.80;;;;;;;0.40;82.44;99932.03;3161401;28;20044;-64
2023/12/10 04:58:02;;;;;;;34.47;14.02;;;;;;;0.38;82.43;99928.63;3162594;28;20057;-65
2023/12/10 04:59:35;;;;;;;45.60;14.65;;;;;;;0.41;82.49;99939.75;3165687;28;20091;-66
2023/12/10 05:01:07;;;;;;;;;;;;;;;0.30;82.55;99938.06;3158282;28;20123;-66
2023/12/10 05:02:38;;;;;;;39.53;13.70;;;;;;;0.34;82.65;99935.47;3166503;28;19946;-66
2023/12/10 05:04:09;;;;;;;36.75;13.57;;;;;;;0.39;82.45;99945.72;3159420;28;20051;-65
2023/12/10 05:05:41;;;;;;;39.75;13.82;;;;;;;0.43;82.35;99932.03;3166217;28;20048;-65
2023/12/10 05:07:12;;;;;;;44.88;14.25;;;;;;;0.45;82.33;99923.50;3168878;28;20054;-65
2023/12/10 05:08:44;;;;;;;41.38;14.05;;;;;;;0.45;82.21;99926.06;3157571;28;20051;-66
2023/12/10 05:10:15;;;;;;;31.60;12.90;;;;;;;0.45;82.23;99920.94;3163605;28;20596;-68
2023/12/10 05:11:46;;;;;;;35.60;14.07;;;;;;;0.44;82.31;99920.91;3168043;28;20052;-69
2023/12/10 05:13:17;;;;;;;30.30;12.35;;;;;;;0.43;82.33;99926.91;3162246;28;20444;-70
2023/12/10 05:14:50;;;;;;;36.50;13.57;;;;;;;0.44;82.28;99931.16;3157078;28;20127;-69
2023/12/10 05:16:21;;;;;;;30.30;12.45;;;;;;;0.43;82.34;99939.72;3166881;28;20117;-66
2023/12/10 05:17:53;;;;;;;41.65;14.30;;;;;;;0.45;82.53;99940.59;3169941;28;20513;-68
2023/12/10 05:19:24;;;;;;;37.47;13.65;;;;;;;0.44;82.31;99933.72;3158190;28;20051;-66
2023/12/10 05:20:56;;;;;;;36.72;13.68;;;;;;;0.45;82.39;99945.72;3162149;28;20055;-69
2023/12/10 05:22:26;;;;;;;38.42;14.50;;;;;;;0.45;82.45;99930.34;3165503;28;20051;-69
2023/12/10 05:23:58;;;;;;;36.58;14.00;;;;;;;0.47;82.49;99935.44;3160296;28;20205;-68
2023/12/10 05:25:30;;;;;;;38.55;14.63;;;;;;;0.49;82.42;99943.97;3157255;28;20048;-68
2023/12/10 05:27:02;;;;;;;41.13;13.30;;;;;;;0.47;82.37;99928.59;3157187;28;20059;-68
2023/12/10 05:28:33;;;;;;;33.40;13.65;;;;;;;0.51;82.26;99939.72;3157719;28;20055;-67
2023/12/10 05:30:07;;;;;;;40.17;13.98;;;;;;;0.19;82.24;99892.81;3163614;28;20436;-67
2023/12/10 05:31:38;;;;;;;39.13;14.38;;;;;;;0.47;82.45;99949.09;3163969;28;20431;-70
2023/12/10 05:33:10;;;;;;;31.98;13.23;;;;;;;0.48;82.38;99935.44;3157383;28;20130;-69
2023/12/10 05:34:41;;;;;;;42.10;12.90;;;;;;;0.53;82.42;99951.66;3156803;28;20090;-70
2023/12/10 05:36:13;;;;;;;36.33;13.40;;;;;;;0.53;82.31;99948.22;3157013;28;20048;-71
2023/12/10 05:37:43;;;;;;;34.03;13.07;;;;;;;0.55;82.48;99956.78;3157123;28;20065;-68
2023/12/10 05:39:15;;;;;;;35.72;12.57;;;;;;;0.57;82.32;99961.06;3156943;28;20059;-68
2023/12/10 05:40:46;;;;;;;32.40;12.77;;;;;;;0.59;82.53;99955.91;3157631;28;20051;-67
2023/12/10 05:42:18;;;;;;;39.30;14.23;;;;;;;0.60;82.51;99958.47;3169313;28;20158;-64
2023/12/10 05:43:49;;;;;;;36.03;12.73;;;;;;;0.61;82.54;99952.50;3157046;28;20125;-67
2023/12/10 05:45:22;;;;;;;33.63;12.88;;;;;;;0.63;82.59;99953.34;3157698;28;20142;-69
2023/12/10 05:46:53;;;;;;;41.60;13.40;;;;;;;0.64;82.41;99955.03;3168032;28;20051;-70
2023/12/10 05:48:25;;;;;;;29.42;11.50;;;;;;;0.65;82.39;99948.19;3168147;28;20051;-69
2023/12/10 05:49:56;;;;;;;32.08;12.48;;;;;;;0.63;82.34;99944.81;3167069;28;20054;-68
2023/12/10 05:51:28;;;;;;;34.67;13.20;;;;;;;0.64;82.42;99954.19;3157278;28;20416;-68
2023/12/10 05:52:58;;;;;;;32.33;12.73;;;;;;;0.60;82.39;99949.94;3167865;28;20067;-68
2023/12/10 05:54:30;;;;;;;30.35;12.68;;;;;;;0.61;82.42;99954.22;3167258;28;20055;-67
2023/12/10 05:56:01;;;;;;;39.05;14.77;;;;;;;0.63;82.66;99944.81;3166358;28;20120;-72
2023/12/10 05:57:33;;;;;;;35.25;13.43;;;;;;;0.65;82.59;99943.06;3168162;28;20183;-69
2023/12/10 05:59:04;;;;;;;36.53;14.40;;;;;;;0.62;82.44;99956.78;3168455;28;20047;-67
2023/12/10 06:00:37;;;;;;;35.58;14.07;;;;;;;0.62;82.73;99954.22;3166760;28;20043;-69
2023/12/10 06:02:08;;;;;;;39.25;13.00;;;;;;;0.62;82.68;99948.22;3167924;28;20100;-66
2023/12/10 06:03:39;;;;;;;39.72;14.02;;;;;;;0.60;82.56;99945.66;3168422;28;20119;-67
2023/12/10 06:05:10;;;;;;;41.00;15.50;;;;;;;0.59;82.77;99949.09;3167482;28;20048;-67
2023/12/10 06:06:42;;;;;;;36.05;14.85;;;;;;;0.59;82.82;99949.09;3165288;28;20176;-67
2023/12/10 06:08:13;;;;;;;46.22;16.10;;;;;;;0.59;82.95;99943.97;3166992;28;20055;-69
2023/12/10 06:09:45;;;;;;;43.00;14.80;;;;;;;0.60;83.00;99944.81;3166188;28;20044;-69
2023/12/10 06:11:15;;;;;;;39.90;15.85;;;;;;;0.61;82.97;99944.81;3161384;28;20470;-67
2023/12/10 06:12:47;;;;;;;42.97;15.85;;;;;;;0.63;82.93;99950.78;3168116;28;20052;-69
2023/12/10 06:14:18;;;;;;;41.72;15.43;;;;;;;0.61;82.67;99951.63;3168949;28;20055;-69
2023/12/10 06:15:52;;;;;;;42.65;15.57;;;;;;;0.58;82.95;99949.09;3169071;28;20567;-68
2023/12/10 06:17:22;;;;;;;53.85;19.88;;;;;;;0.54;82.98;99944.84;3166669;28;20112;-68
2023/12/10 06:18:54;;;;;;;50.75;16.90;;;;;;;0.55;83.09;99944.81;3162927;28;20055;-67
2023/12/10 06:20:25;;;;;;;43.90;15.88;;;;;;;0.57;83.26;99948.25;3161496;28;20058;-67
2023/12/10 06:21:57;;;;;;;46.72;18.27;;;;;;;0.57;83.11;99942.28;3157956;28;20048;-68
2023/12/10 06:23:28;;;;;;;48.53;17.85;;;;;;;0.59;83.23;99950.78;3161705;28;20047;-68
2023/12/10 06:25:00;;;;;;;50.20;19.58;;;;;;;0.61;83.38;99951.63;3163946;28;20070;-68
2023/12/10 06:26:31;;;;;;;62.42;23.88;;;;;;;0.62;83.13;99943.97;3153793;28;20501;-71
2023/12/10 06:28:03;;;;;;;48.45;18.60;;;;;;;0.60;83.17;99947.38;3162994;28;20066;-71
2023/12/10 06:29:34;;;;;;;58.33;20.52;;;;;;;0.54;83.32;99942.28;3161450;28;20054;-69
2023/12/10 06:31:07;;;;;;;56.15;18.75;;;;;;;0.53;83.31;99941.41;3151599;28;20052;-70
2023/12/10 06:32:38;;;;;;;55.70;18.88;;;;;;;0.52;83.39;99942.25;3158507;28;20046;-72
2023/12/10 06:34:10;;;;;;;52.05;17.52;;;;;;;0.49;83.50;99949.09;3162378;28;20818;-72
2023/12/10 06:35:41;;;;;;;46.47;16.80;;;;;;;0.48;83.51;99947.41;3151109;28;20051;-69
2023/12/10 06:37:13;;;;;;;49.80;18.10;;;;;;;0.47;83.58;99943.97;3161845;28;20056;-67
2023/12/10 06:38:44;;;;;;;55.85;18.20;;;;;;;0.50;83.77;99941.41;3162516;28;20417;-64
2023/12/10 06:40:16;;;;;;;54.53;19.27;;;;;;;0.52;83.44;99955.06;3162370;28;20051;-64
2023/12/10 06:41:47;;;;;;;52.85;18.38;;;;;;;0.53;83.84;99945.69;3163805;28;20063;-67
2023/12/10 06:43:21;;;;;;;59.90;18.33;;;;;;;0.51;83.88;99940.56;3162912;28;20586;-68
2023/12/10 06:44:52;;;;;;;57.00;17.92;;;;;;;0.56;83.64;99949.09;3162560;28;20078;-68
2023/12/10 06:46:26;;;;;;;58.92;18.27;;;;;;;0.57;83.80;99948.25;3153320;28;20078;-68
2023/12/10 06:47:56;;;;;;;;;;;;;;;0.44;84.01;99955.09;3154403;28;20069;-67
2023/12/10 06:49:28;;;;;;;45.95;15.32;;;;;;;0.45;84.18;99959.38;3162265;28;19923;-67
2023/12/10 06:51:00;;;;;;;62.03;17.52;;;;;;;0.55;84.15;99972.16;3173564;28;20051;-67
2023/12/10 06:52:32;;;;;;;54.28;16.38;;;;;;;0.59;83.97;99966.16;3165062;28;20047;-68
2023/12/10 06:54:03;;;;;;;58.28;17.52;;;;;;;0.63;83.86;99970.44;3162909;28;20128;-69
2023/12/10 06:55:35;;;;;;;51.78;17.05;;;;;;;0.66;83.92;99958.47;3164399;28;20095;-71
2023/12/10 06:57:06;;;;;;;50.75;16.85;;;;;;;0.68;83.61;99971.25;3158747;28;20055;-73
2023/12/10 06:58:38;;;;;;;53.08;16.33;;;;;;;0.68;83.70;99969.56;3156409;28;20611;-70
2023/12/10 07:00:10;;;;;;;54.63;18.08;;;;;;;0.67;83.91;99970.41;3165058;28;20143;-72
2023/12/10 07:01:43;;;;;;;56.65;17.58;;;;;;;0.65;83.91;99964.47;3164946;28;20058;-69
2023/12/10 07:03:14;;;;;;;85.60;31.08;;;;;;;0.67;83.91;99972.97;3158213;28;20048;-70
2023/12/10 07:04:46;;;;;;;57.97;19.15;;;;;;;0.74;83.99;99978.97;3160094;28;20051;-73
2023/12/10 07:06:17;;;;;;;93.68;30.75;;;;;;;0.78;83.96;99979.81;3163978;28;20050;-75
2023/12/10 07:07:49;;;;;;;60.67;18.40;;;;;;;0.82;83.88;99990.03;3166135;28;20051;-73
2023/12/10 07:09:20;;;;;;;58.17;17.80;;;;;;;0.84;83.71;99987.47;3163390;28;20059;-73